sensor_id;sensor_type;location;lat;lon;timestamp;temperature;humidity
56234;DHT22;42141;53.240;6.580;2023-05-07T00:00:12;11.80;99.90
56234;DHT22;42141;53.240;6.580;2023-05-07T00:02:41;11.80;99.90
56234;DHT22;42141;53.240;6.580;2023-05-07T00:05:07;11.70;99.90
56234;DHT22;42141;53.240;6.580;2023-05-07T00:07:33;11.70;99.90
56234;DHT22;42141;53.240;6.580;2023-05-07T00:09:58;11.70;99.90
56234;DHT22;42141;53.240;6.580;2023-05-07T00:12:24;11.60;99.90
56234;DHT22;42141;53.240;6.580;2023-05-07T00:14:50;11.60;99.90
56234;DHT22;42141;53.240;6.580;2023-05-07T00:17:16;12.00;99.90
56234;DHT22;42141;53.240;6.580;2023-05-07T00:19:42;11.60;99.90
56234;DHT22;42141;53.240;6.580;2023-05-07T00:22:08;11.50;99.90
56234;DHT22;42141;53.240;6.580;2023-05-07T00:24:34;11.50;99.90
56234;DHT22;42141;53.240;6.580;2023-05-07T00:26:59;11.50;99.90
56234;DHT22;42141;53.240;6.580;2023-05-07T00:29:25;12.10;99.90
56234;DHT22;42141;53.240;6.580;2023-05-07T00:31:51;11.50;99.90
56234;DHT22;42141;53.240;6.580;2023-05-07T00:34:17;11.50;99.90
56234;DHT22;42141;53.240;6.580;2023-05-07T00:36:43;11.40;99.90
56234;DHT22;42141;53.240;6.580;2023-05-07T00:39:08;11.60;99.90
56234;DHT22;42141;53.240;6.580;2023-05-07T00:41:34;11.50;99.90
56234;DHT22;42141;53.240;6.580;2023-05-07T00:44:00;11.40;99.90
56234;DHT22;42141;53.240;6.580;2023-05-07T00:46:27;11.40;99.90
56234;DHT22;42141;53.240;6.580;2023-05-07T00:48:54;11.40;99.90
56234;DHT22;42141;53.240;6.580;2023-05-07T00:51:19;11.40;99.90
56234;DHT22;42141;53.240;6.580;2023-05-07T00:53:46;11.50;99.90
56234;DHT22;42141;53.240;6.580;2023-05-07T00:56:12;11.40;99.90
56234;DHT22;42141;53.240;6.580;2023-05-07T00:58:38;11.40;99.90
56234;DHT22;42141;53.240;6.580;2023-05-07T01:01:03;11.40;99.90
56234;DHT22;42141;53.240;6.580;2023-05-07T01:03:29;11.40;99.90
56234;DHT22;42141;53.240;6.580;2023-05-07T01:05:57;11.40;99.90
56234;DHT22;42141;53.240;6.580;2023-05-07T01:08:24;11.40;99.90
56234;DHT22;42141;53.240;6.580;2023-05-07T01:10:53;11.40;99.90
56234;DHT22;42141;53.240;6.580;2023-05-07T01:13:19;11.40;99.90
56234;DHT22;42141;53.240;6.580;2023-05-07T01:15:45;11.40;99.90
56234;DHT22;42141;53.240;6.580;2023-05-07T01:18:11;11.40;99.90
56234;DHT22;42141;53.240;6.580;2023-05-07T01:20:37;11.40;99.90
56234;DHT22;42141;53.240;6.580;2023-05-07T01:23:03;11.40;99.90
56234;DHT22;42141;53.240;6.580;2023-05-07T01:25:29;11.40;99.90
56234;DHT22;42141;53.240;6.580;2023-05-07T01:27:56;11.40;99.90
56234;DHT22;42141;53.240;6.580;2023-05-07T01:30:22;11.40;99.90
56234;DHT22;42141;53.240;6.580;2023-05-07T01:32:53;11.40;99.90
56234;DHT22;42141;53.240;6.580;2023-05-07T01:35:24;11.40;99.90
56234;DHT22;42141;53.240;6.580;2023-05-07T01:37:50;11.40;99.90
56234;DHT22;42141;53.240;6.580;2023-05-07T01:40:16;11.40;99.90
56234;DHT22;42141;53.240;6.580;2023-05-07T01:42:46;11.60;99.90
56234;DHT22;42141;53.240;6.580;2023-05-07T01:45:11;11.40;99.90
56234;DHT22;42141;53.240;6.580;2023-05-07T01:47:37;11.50;99.90
56234;DHT22;42141;53.240;6.580;2023-05-07T01:50:08;11.30;99.90
56234;DHT22;42141;53.240;6.580;2023-05-07T01:52:34;11.40;99.90
56234;DHT22;42141;53.240;6.580;2023-05-07T01:55:00;11.30;99.90
56234;DHT22;42141;53.240;6.580;2023-05-07T01:57:26;11.30;99.90
56234;DHT22;42141;53.240;6.580;2023-05-07T01:59:51;11.30;99.90
56234;DHT22;42141;53.240;6.580;2023-05-07T02:02:17;11.30;99.90
56234;DHT22;42141;53.240;6.580;2023-05-07T02:04:43;11.30;99.90
56234;DHT22;42141;53.240;6.580;2023-05-07T02:07:08;11.30;99.90
56234;DHT22;42141;53.240;6.580;2023-05-07T02:09:34;11.60;99.90
56234;DHT22;42141;53.240;6.580;2023-05-07T02:12:00;11.30;99.90
56234;DHT22;42141;53.240;6.580;2023-05-07T02:14:25;11.30;99.90
56234;DHT22;42141;53.240;6.580;2023-05-07T02:16:51;11.30;99.90
56234;DHT22;42141;53.240;6.580;2023-05-07T02:19:17;11.30;99.90
56234;DHT22;42141;53.240;6.580;2023-05-07T02:21:43;11.30;99.90
56234;DHT22;42141;53.240;6.580;2023-05-07T02:24:09;11.20;99.90
56234;DHT22;42141;53.240;6.580;2023-05-07T02:26:35;11.20;99.90
56234;DHT22;42141;53.240;6.580;2023-05-07T02:29:00;11.30;99.90
56234;DHT22;42141;53.240;6.580;2023-05-07T02:31:26;11.30;99.90
56234;DHT22;42141;53.240;6.580;2023-05-07T02:33:51;11.30;99.90
56234;DHT22;42141;53.240;6.580;2023-05-07T02:36:17;11.30;99.90
56234;DHT22;42141;53.240;6.580;2023-05-07T02:38:43;11.20;99.90
56234;DHT22;42141;53.240;6.580;2023-05-07T02:41:08;11.20;99.90
56234;DHT22;42141;53.240;6.580;2023-05-07T02:43:34;11.20;99.90
56234;DHT22;42141;53.240;6.580;2023-05-07T02:46:07;11.20;99.90
56234;DHT22;42141;53.240;6.580;2023-05-07T02:48:34;11.30;99.90
56234;DHT22;42141;53.240;6.580;2023-05-07T02:51:00;11.30;99.90
56234;DHT22;42141;53.240;6.580;2023-05-07T02:53:27;11.20;99.90
56234;DHT22;42141;53.240;6.580;2023-05-07T02:55:53;11.30;99.90
56234;DHT22;42141;53.240;6.580;2023-05-07T02:58:19;11.20;99.90
56234;DHT22;42141;53.240;6.580;2023-05-07T03:00:45;11.20;99.90
56234;DHT22;42141;53.240;6.580;2023-05-07T03:03:10;11.20;99.90
56234;DHT22;42141;53.240;6.580;2023-05-07T03:05:36;11.20;99.90
56234;DHT22;42141;53.240;6.580;2023-05-07T03:08:02;11.50;99.90
56234;DHT22;42141;53.240;6.580;2023-05-07T03:10:29;11.20;99.90
56234;DHT22;42141;53.240;6.580;2023-05-07T03:12:55;11.20;99.90
56234;DHT22;42141;53.240;6.580;2023-05-07T03:15:21;11.10;99.90
56234;DHT22;42141;53.240;6.580;2023-05-07T03:17:47;11.10;99.90
56234;DHT22;42141;53.240;6.580;2023-05-07T03:20:13;11.10;99.90
56234;DHT22;42141;53.240;6.580;2023-05-07T03:22:39;11.10;99.90
56234;DHT22;42141;53.240;6.580;2023-05-07T03:25:06;11.10;99.90
56234;DHT22;42141;53.240;6.580;2023-05-07T03:27:32;11.10;99.90
56234;DHT22;42141;53.240;6.580;2023-05-07T03:29:57;11.00;99.90
56234;DHT22;42141;53.240;6.580;2023-05-07T03:32:23;11.00;99.90
56234;DHT22;42141;53.240;6.580;2023-05-07T03:34:49;11.00;99.90
56234;DHT22;42141;53.240;6.580;2023-05-07T03:37:14;11.00;99.90
56234;DHT22;42141;53.240;6.580;2023-05-07T03:39:40;11.00;99.90
56234;DHT22;42141;53.240;6.580;2023-05-07T03:42:06;11.00;99.90
56234;DHT22;42141;53.240;6.580;2023-05-07T03:44:32;11.00;99.90
56234;DHT22;42141;53.240;6.580;2023-05-07T03:46:57;10.90;99.90
56234;DHT22;42141;53.240;6.580;2023-05-07T03:49:23;10.90;99.90
56234;DHT22;42141;53.240;6.580;2023-05-07T03:51:49;10.90;99.90
56234;DHT22;42141;53.240;6.580;2023-05-07T03:54:14;10.90;99.90
56234;DHT22;42141;53.240;6.580;2023-05-07T03:56:40;10.90;99.90
56234;DHT22;42141;53.240;6.580;2023-05-07T03:59:06;11.10;99.90
56234;DHT22;42141;53.240;6.580;2023-05-07T04:01:31;10.90;99.90
56234;DHT22;42141;53.240;6.580;2023-05-07T04:03:57;10.80;99.90
56234;DHT22;42141;53.240;6.580;2023-05-07T04:06:23;10.80;99.90
56234;DHT22;42141;53.240;6.580;2023-05-07T04:08:49;10.80;99.90
56234;DHT22;42141;53.240;6.580;2023-05-07T04:11:15;10.80;99.90
56234;DHT22;42141;53.240;6.580;2023-05-07T04:13:41;10.80;99.90
56234;DHT22;42141;53.240;6.580;2023-05-07T04:16:07;10.80;99.90
56234;DHT22;42141;53.240;6.580;2023-05-07T04:18:33;10.80;99.90
56234;DHT22;42141;53.240;6.580;2023-05-07T04:20:58;10.80;99.90
56234;DHT22;42141;53.240;6.580;2023-05-07T04:23:24;11.40;99.90
56234;DHT22;42141;53.240;6.580;2023-05-07T04:25:50;10.70;99.90
56234;DHT22;42141;53.240;6.580;2023-05-07T04:28:16;10.70;99.90
56234;DHT22;42141;53.240;6.580;2023-05-07T04:30:42;10.70;99.90
56234;DHT22;42141;53.240;6.580;2023-05-07T04:33:07;10.70;99.90
56234;DHT22;42141;53.240;6.580;2023-05-07T04:35:33;10.80;99.90
56234;DHT22;42141;53.240;6.580;2023-05-07T04:38:00;10.70;99.90
56234;DHT22;42141;53.240;6.580;2023-05-07T04:40:26;10.70;99.90
56234;DHT22;42141;53.240;6.580;2023-05-07T04:42:51;10.70;99.90
56234;DHT22;42141;53.240;6.580;2023-05-07T04:45:18;10.70;99.90
56234;DHT22;42141;53.240;6.580;2023-05-07T04:47:44;10.70;99.90
56234;DHT22;42141;53.240;6.580;2023-05-07T04:50:10;10.70;99.90
56234;DHT22;42141;53.240;6.580;2023-05-07T04:52:36;10.70;99.90
56234;DHT22;42141;53.240;6.580;2023-05-07T04:55:02;10.70;99.90
56234;DHT22;42141;53.240;6.580;2023-05-07T04:57:28;10.70;99.90
56234;DHT22;42141;53.240;6.580;2023-05-07T04:59:54;10.70;99.90
56234;DHT22;42141;53.240;6.580;2023-05-07T05:02:19;10.70;99.90
56234;DHT22;42141;53.240;6.580;2023-05-07T05:04:45;10.70;99.90
56234;DHT22;42141;53.240;6.580;2023-05-07T05:07:11;11.00;99.90
56234;DHT22;42141;53.240;6.580;2023-05-07T05:09:37;10.70;99.90
56234;DHT22;42141;53.240;6.580;2023-05-07T05:12:02;10.70;99.90
56234;DHT22;42141;53.240;6.580;2023-05-07T05:14:29;10.70;99.90
56234;DHT22;42141;53.240;6.580;2023-05-07T05:16:55;10.70;99.90
56234;DHT22;42141;53.240;6.580;2023-05-07T05:19:20;11.30;99.90
56234;DHT22;42141;53.240;6.580;2023-05-07T05:21:46;10.70;99.90
56234;DHT22;42141;53.240;6.580;2023-05-07T05:24:12;10.80;99.90
56234;DHT22;42141;53.240;6.580;2023-05-07T05:26:37;10.70;99.90
56234;DHT22;42141;53.240;6.580;2023-05-07T05:29:03;10.70;99.90
56234;DHT22;42141;53.240;6.580;2023-05-07T05:31:29;10.70;99.90
56234;DHT22;42141;53.240;6.580;2023-05-07T05:33:55;10.70;99.90
56234;DHT22;42141;53.240;6.580;2023-05-07T05:36:20;10.80;99.90
56234;DHT22;42141;53.240;6.580;2023-05-07T05:38:46;10.80;99.90
56234;DHT22;42141;53.240;6.580;2023-05-07T05:41:12;11.00;99.90
56234;DHT22;42141;53.240;6.580;2023-05-07T05:43:37;10.80;99.90
56234;DHT22;42141;53.240;6.580;2023-05-07T05:46:03;10.70;99.90
56234;DHT22;42141;53.240;6.580;2023-05-07T05:48:29;10.70;99.90
56234;DHT22;42141;53.240;6.580;2023-05-07T05:50:55;10.80;99.90
56234;DHT22;42141;53.240;6.580;2023-05-07T05:53:21;11.10;99.90
56234;DHT22;42141;53.240;6.580;2023-05-07T05:55:47;10.80;99.90
56234;DHT22;42141;53.240;6.580;2023-05-07T05:58:12;10.70;99.90
56234;DHT22;42141;53.240;6.580;2023-05-07T06:00:38;10.70;99.90
56234;DHT22;42141;53.240;6.580;2023-05-07T06:03:04;10.80;99.90
56234;DHT22;42141;53.240;6.580;2023-05-07T06:05:30;10.80;99.90
56234;DHT22;42141;53.240;6.580;2023-05-07T06:07:56;10.80;99.90
56234;DHT22;42141;53.240;6.580;2023-05-07T06:10:21;10.80;99.90
56234;DHT22;42141;53.240;6.580;2023-05-07T06:12:47;10.80;99.90
56234;DHT22;42141;53.240;6.580;2023-05-07T06:15:13;10.80;99.90
56234;DHT22;42141;53.240;6.580;2023-05-07T06:17:38;11.20;99.90
56234;DHT22;42141;53.240;6.580;2023-05-07T06:20:05;10.80;99.90
56234;DHT22;42141;53.240;6.580;2023-05-07T06:22:31;10.90;99.90
56234;DHT22;42141;53.240;6.580;2023-05-07T06:24:56;10.90;99.90
56234;DHT22;42141;53.240;6.580;2023-05-07T06:27:23;11.00;99.90
56234;DHT22;42141;53.240;6.580;2023-05-07T06:29:49;11.00;99.90
56234;DHT22;42141;53.240;6.580;2023-05-07T06:32:15;11.00;99.90
56234;DHT22;42141;53.240;6.580;2023-05-07T06:34:42;11.10;99.90
56234;DHT22;42141;53.240;6.580;2023-05-07T06:37:08;11.10;99.90
56234;DHT22;42141;53.240;6.580;2023-05-07T06:39:33;11.10;99.90
56234;DHT22;42141;53.240;6.580;2023-05-07T06:42:00;11.10;99.90
56234;DHT22;42141;53.240;6.580;2023-05-07T06:44:27;11.10;99.90
56234;DHT22;42141;53.240;6.580;2023-05-07T06:46:53;11.10;99.90
56234;DHT22;42141;53.240;6.580;2023-05-07T06:49:18;11.10;99.90
56234;DHT22;42141;53.240;6.580;2023-05-07T06:51:44;11.10;99.90
56234;DHT22;42141;53.240;6.580;2023-05-07T06:54:10;11.20;99.90
56234;DHT22;42141;53.240;6.580;2023-05-07T06:56:36;11.20;99.90
56234;DHT22;42141;53.240;6.580;2023-05-07T06:59:02;11.20;99.90
56234;DHT22;42141;53.240;6.580;2023-05-07T07:01:29;11.20;99.90
56234;DHT22;42141;53.240;6.580;2023-05-07T07:03:55;11.20;99.90
56234;DHT22;42141;53.240;6.580;2023-05-07T07:06:20;11.20;99.90
56234;DHT22;42141;53.240;6.580;2023-05-07T07:08:46;11.80;99.90
56234;DHT22;42141;53.240;6.580;2023-05-07T07:11:12;11.30;99.90
56234;DHT22;42141;53.240;6.580;2023-05-07T07:13:38;11.30;99.90
56234;DHT22;42141;53.240;6.580;2023-05-07T07:16:03;11.20;99.90
56234;DHT22;42141;53.240;6.580;2023-05-07T07:18:29;11.20;99.90
56234;DHT22;42141;53.240;6.580;2023-05-07T07:20:55;11.20;99.90
56234;DHT22;42141;53.240;6.580;2023-05-07T07:23:21;11.20;99.90
56234;DHT22;42141;53.240;6.580;2023-05-07T07:25:47;11.20;99.90
56234;DHT22;42141;53.240;6.580;2023-05-07T07:28:12;11.20;99.90
56234;DHT22;42141;53.240;6.580;2023-05-07T07:30:38;11.20;99.90
56234;DHT22;42141;53.240;6.580;2023-05-07T07:33:05;11.20;99.90
56234;DHT22;42141;53.240;6.580;2023-05-07T07:35:31;11.10;99.90
56234;DHT22;42141;53.240;6.580;2023-05-07T07:37:57;11.10;99.90
56234;DHT22;42141;53.240;6.580;2023-05-07T07:40:24;11.10;99.90
56234;DHT22;42141;53.240;6.580;2023-05-07T07:42:50;11.10;99.90
56234;DHT22;42141;53.240;6.580;2023-05-07T07:45:16;11.10;99.90
56234;DHT22;42141;53.240;6.580;2023-05-07T07:47:42;11.10;99.90
56234;DHT22;42141;53.240;6.580;2023-05-07T07:50:08;11.10;99.90
56234;DHT22;42141;53.240;6.580;2023-05-07T07:52:34;11.20;99.90
56234;DHT22;42141;53.240;6.580;2023-05-07T07:55:00;11.20;99.90
56234;DHT22;42141;53.240;6.580;2023-05-07T07:57:26;11.20;99.90
56234;DHT22;42141;53.240;6.580;2023-05-07T07:59:52;11.20;99.90
56234;DHT22;42141;53.240;6.580;2023-05-07T08:02:17;11.30;99.90
56234;DHT22;42141;53.240;6.580;2023-05-07T08:04:43;11.30;99.90
56234;DHT22;42141;53.240;6.580;2023-05-07T08:07:10;11.50;99.90
56234;DHT22;42141;53.240;6.580;2023-05-07T08:09:39;11.40;99.90
56234;DHT22;42141;53.240;6.580;2023-05-07T08:12:05;11.50;99.90
56234;DHT22;42141;53.240;6.580;2023-05-07T08:14:31;11.50;99.90
56234;DHT22;42141;53.240;6.580;2023-05-07T08:16:57;11.60;99.90
56234;DHT22;42141;53.240;6.580;2023-05-07T08:19:22;11.70;99.90
56234;DHT22;42141;53.240;6.580;2023-05-07T08:21:48;11.70;99.90
56234;DHT22;42141;53.240;6.580;2023-05-07T08:24:15;11.80;99.90
56234;DHT22;42141;53.240;6.580;2023-05-07T08:26:44;11.90;99.90
56234;DHT22;42141;53.240;6.580;2023-05-07T08:29:10;12.00;99.90
56234;DHT22;42141;53.240;6.580;2023-05-07T08:31:36;12.00;99.90
56234;DHT22;42141;53.240;6.580;2023-05-07T08:34:04;12.00;99.90
56234;DHT22;42141;53.240;6.580;2023-05-07T08:36:30;12.00;99.90
56234;DHT22;42141;53.240;6.580;2023-05-07T08:38:56;12.10;99.90
56234;DHT22;42141;53.240;6.580;2023-05-07T08:41:21;12.10;99.90
56234;DHT22;42141;53.240;6.580;2023-05-07T08:43:49;12.20;99.90
56234;DHT22;42141;53.240;6.580;2023-05-07T08:46:20;12.30;99.90
56234;DHT22;42141;53.240;6.580;2023-05-07T08:48:49;12.60;99.90
56234;DHT22;42141;53.240;6.580;2023-05-07T08:51:19;12.70;99.90
56234;DHT22;42141;53.240;6.580;2023-05-07T08:53:47;12.90;99.90
56234;DHT22;42141;53.240;6.580;2023-05-07T08:56:14;13.00;99.90
56234;DHT22;42141;53.240;6.580;2023-05-07T08:58:44;13.10;99.90
56234;DHT22;42141;53.240;6.580;2023-05-07T09:01:13;13.20;99.90
56234;DHT22;42141;53.240;6.580;2023-05-07T09:03:39;13.20;99.90
56234;DHT22;42141;53.240;6.580;2023-05-07T09:06:06;13.30;99.90
56234;DHT22;42141;53.240;6.580;2023-05-07T09:08:35;13.40;99.90
56234;DHT22;42141;53.240;6.580;2023-05-07T09:11:02;13.50;99.90
56234;DHT22;42141;53.240;6.580;2023-05-07T09:13:28;13.60;99.90
56234;DHT22;42141;53.240;6.580;2023-05-07T09:15:54;13.70;99.90
56234;DHT22;42141;53.240;6.580;2023-05-07T09:18:20;13.70;99.90
56234;DHT22;42141;53.240;6.580;2023-05-07T09:20:46;13.70;99.90
56234;DHT22;42141;53.240;6.580;2023-05-07T09:23:11;13.80;99.90
56234;DHT22;42141;53.240;6.580;2023-05-07T09:25:37;13.80;99.90
56234;DHT22;42141;53.240;6.580;2023-05-07T09:28:04;13.80;99.90
56234;DHT22;42141;53.240;6.580;2023-05-07T09:30:33;13.90;99.90
56234;DHT22;42141;53.240;6.580;2023-05-07T09:33:01;13.90;99.90
56234;DHT22;42141;53.240;6.580;2023-05-07T09:35:27;14.00;99.90
56234;DHT22;42141;53.240;6.580;2023-05-07T09:37:58;14.00;99.90
56234;DHT22;42141;53.240;6.580;2023-05-07T09:40:28;14.20;99.90
56234;DHT22;42141;53.240;6.580;2023-05-07T09:42:55;14.40;99.90
56234;DHT22;42141;53.240;6.580;2023-05-07T09:45:28;14.50;99.90
56234;DHT22;42141;53.240;6.580;2023-05-07T09:47:56;14.60;99.90
56234;DHT22;42141;53.240;6.580;2023-05-07T09:50:28;14.60;99.90
56234;DHT22;42141;53.240;6.580;2023-05-07T09:52:55;14.60;99.90
56234;DHT22;42141;53.240;6.580;2023-05-07T09:55:22;14.70;99.90
56234;DHT22;42141;53.240;6.580;2023-05-07T09:57:52;14.70;99.90
56234;DHT22;42141;53.240;6.580;2023-05-07T10:00:22;14.70;99.90
56234;DHT22;42141;53.240;6.580;2023-05-07T10:02:52;14.80;99.90
56234;DHT22;42141;53.240;6.580;2023-05-07T10:05:18;15.00;99.90
56234;DHT22;42141;53.240;6.580;2023-05-07T10:07:46;15.20;99.90
56234;DHT22;42141;53.240;6.580;2023-05-07T10:10:12;15.30;99.90
56234;DHT22;42141;53.240;6.580;2023-05-07T10:12:38;15.40;99.90
56234;DHT22;42141;53.240;6.580;2023-05-07T10:15:10;15.50;99.90
56234;DHT22;42141;53.240;6.580;2023-05-07T10:17:37;15.40;99.90
56234;DHT22;42141;53.240;6.580;2023-05-07T10:20:05;15.40;99.90
56234;DHT22;42141;53.240;6.580;2023-05-07T10:22:37;15.30;99.90
56234;DHT22;42141;53.240;6.580;2023-05-07T10:25:09;15.20;99.90
56234;DHT22;42141;53.240;6.580;2023-05-07T10:27:38;15.30;99.90
56234;DHT22;42141;53.240;6.580;2023-05-07T10:30:24;15.20;99.90
56234;DHT22;42141;53.240;6.580;2023-05-07T10:32:55;15.20;99.90
56234;DHT22;42141;53.240;6.580;2023-05-07T10:35:26;15.20;99.90
56234;DHT22;42141;53.240;6.580;2023-05-07T10:37:53;15.10;99.90
56234;DHT22;42141;53.240;6.580;2023-05-07T10:40:20;15.10;99.90
56234;DHT22;42141;53.240;6.580;2023-05-07T10:42:59;15.20;99.90
56234;DHT22;42141;53.240;6.580;2023-05-07T10:45:27;15.20;99.90
56234;DHT22;42141;53.240;6.580;2023-05-07T10:48:15;15.30;99.90
56234;DHT22;42141;53.240;6.580;2023-05-07T10:50:44;15.30;99.90
56234;DHT22;42141;53.240;6.580;2023-05-07T10:55:46;15.20;99.90
56234;DHT22;42141;53.240;6.580;2023-05-07T10:58:25;15.20;99.90
56234;DHT22;42141;53.240;6.580;2023-05-07T11:01:00;15.30;99.90
56234;DHT22;42141;53.240;6.580;2023-05-07T11:03:27;15.50;99.90
56234;DHT22;42141;53.240;6.580;2023-05-07T11:06:15;15.60;99.90
56234;DHT22;42141;53.240;6.580;2023-05-07T11:08:56;15.70;99.90
56234;DHT22;42141;53.240;6.580;2023-05-07T11:11:47;15.90;99.90
56234;DHT22;42141;53.240;6.580;2023-05-07T11:14:55;16.10;99.90
56234;DHT22;42141;53.240;6.580;2023-05-07T11:17:20;16.30;99.90
56234;DHT22;42141;53.240;6.580;2023-05-07T11:19:53;16.50;99.90
56234;DHT22;42141;53.240;6.580;2023-05-07T11:25:05;16.80;99.90
56234;DHT22;42141;53.240;6.580;2023-05-07T11:27:32;17.00;99.90
56234;DHT22;42141;53.240;6.580;2023-05-07T11:29:59;17.30;99.90
56234;DHT22;42141;53.240;6.580;2023-05-07T11:32:31;17.40;99.90
56234;DHT22;42141;53.240;6.580;2023-05-07T11:34:58;17.50;99.90
56234;DHT22;42141;53.240;6.580;2023-05-07T11:37:26;17.60;99.90
56234;DHT22;42141;53.240;6.580;2023-05-07T11:40:03;17.60;99.90
56234;DHT22;42141;53.240;6.580;2023-05-07T11:42:30;17.50;99.90
56234;DHT22;42141;53.240;6.580;2023-05-07T11:44:56;17.60;99.90
56234;DHT22;42141;53.240;6.580;2023-05-07T11:47:22;17.70;99.90
56234;DHT22;42141;53.240;6.580;2023-05-07T11:49:49;17.70;99.90
56234;DHT22;42141;53.240;6.580;2023-05-07T11:52:16;17.60;99.90
56234;DHT22;42141;53.240;6.580;2023-05-07T11:54:49;17.60;99.90
56234;DHT22;42141;53.240;6.580;2023-05-07T11:57:15;17.70;99.90
56234;DHT22;42141;53.240;6.580;2023-05-07T11:59:41;17.70;99.90
56234;DHT22;42141;53.240;6.580;2023-05-07T12:02:10;17.90;99.90
56234;DHT22;42141;53.240;6.580;2023-05-07T12:04:37;17.90;99.90
56234;DHT22;42141;53.240;6.580;2023-05-07T12:07:03;18.00;99.90
56234;DHT22;42141;53.240;6.580;2023-05-07T12:09:29;18.10;99.90
56234;DHT22;42141;53.240;6.580;2023-05-07T12:11:55;18.20;99.90
56234;DHT22;42141;53.240;6.580;2023-05-07T12:14:21;18.40;99.90
56234;DHT22;42141;53.240;6.580;2023-05-07T12:16:47;18.60;99.90
56234;DHT22;42141;53.240;6.580;2023-05-07T12:19:13;18.70;99.90
56234;DHT22;42141;53.240;6.580;2023-05-07T12:21:40;18.90;99.90
56234;DHT22;42141;53.240;6.580;2023-05-07T12:24:07;19.00;99.90
56234;DHT22;42141;53.240;6.580;2023-05-07T12:26:38;19.00;99.90
56234;DHT22;42141;53.240;6.580;2023-05-07T12:29:04;18.90;99.90
56234;DHT22;42141;53.240;6.580;2023-05-07T12:31:30;18.80;99.90
56234;DHT22;42141;53.240;6.580;2023-05-07T12:33:56;18.60;99.90
56234;DHT22;42141;53.240;6.580;2023-05-07T12:36:22;18.60;99.90
56234;DHT22;42141;53.240;6.580;2023-05-07T12:38:49;18.50;99.90
56234;DHT22;42141;53.240;6.580;2023-05-07T12:41:15;18.60;99.90
56234;DHT22;42141;53.240;6.580;2023-05-07T12:43:45;18.70;99.90
56234;DHT22;42141;53.240;6.580;2023-05-07T12:46:11;18.80;99.90
56234;DHT22;42141;53.240;6.580;2023-05-07T12:48:43;18.60;99.90
56234;DHT22;42141;53.240;6.580;2023-05-07T12:51:12;18.50;99.90
56234;DHT22;42141;53.240;6.580;2023-05-07T12:53:40;18.50;99.90
56234;DHT22;42141;53.240;6.580;2023-05-07T12:56:09;18.60;99.90
56234;DHT22;42141;53.240;6.580;2023-05-07T12:58:36;18.70;99.90
56234;DHT22;42141;53.240;6.580;2023-05-07T13:01:06;18.80;99.90
56234;DHT22;42141;53.240;6.580;2023-05-07T13:03:33;18.90;99.90
56234;DHT22;42141;53.240;6.580;2023-05-07T13:06:08;19.10;99.90
56234;DHT22;42141;53.240;6.580;2023-05-07T13:08:37;19.30;99.90
56234;DHT22;42141;53.240;6.580;2023-05-07T13:11:04;19.50;99.90
56234;DHT22;42141;53.240;6.580;2023-05-07T13:13:34;19.80;99.90
56234;DHT22;42141;53.240;6.580;2023-05-07T13:16:01;19.80;99.90
56234;DHT22;42141;53.240;6.580;2023-05-07T13:18:30;19.80;99.90
56234;DHT22;42141;53.240;6.580;2023-05-07T13:20:57;19.80;99.90
56234;DHT22;42141;53.240;6.580;2023-05-07T13:23:23;19.80;99.90
56234;DHT22;42141;53.240;6.580;2023-05-07T13:25:49;19.90;99.90
56234;DHT22;42141;53.240;6.580;2023-05-07T13:28:16;19.90;99.90
56234;DHT22;42141;53.240;6.580;2023-05-07T13:30:42;20.20;99.90
56234;DHT22;42141;53.240;6.580;2023-05-07T13:33:08;20.30;99.90
56234;DHT22;42141;53.240;6.580;2023-05-07T13:35:34;20.20;99.90
56234;DHT22;42141;53.240;6.580;2023-05-07T13:38:00;20.00;99.90
56234;DHT22;42141;53.240;6.580;2023-05-07T13:40:26;19.90;99.90
56234;DHT22;42141;53.240;6.580;2023-05-07T13:42:51;20.00;99.90
56234;DHT22;42141;53.240;6.580;2023-05-07T13:45:20;20.10;99.90
56234;DHT22;42141;53.240;6.580;2023-05-07T13:47:46;20.30;99.90
56234;DHT22;42141;53.240;6.580;2023-05-07T13:50:12;20.40;99.90
56234;DHT22;42141;53.240;6.580;2023-05-07T13:52:42;20.60;99.90
56234;DHT22;42141;53.240;6.580;2023-05-07T13:55:12;20.70;99.90
56234;DHT22;42141;53.240;6.580;2023-05-07T13:57:38;20.60;99.90
56234;DHT22;42141;53.240;6.580;2023-05-07T14:00:04;20.60;99.90
56234;DHT22;42141;53.240;6.580;2023-05-07T14:02:31;20.60;99.90
56234;DHT22;42141;53.240;6.580;2023-05-07T14:04:56;20.70;99.90
56234;DHT22;42141;53.240;6.580;2023-05-07T14:07:22;20.80;99.90
56234;DHT22;42141;53.240;6.580;2023-05-07T14:09:48;21.10;99.90
56234;DHT22;42141;53.240;6.580;2023-05-07T14:12:14;21.30;99.90
56234;DHT22;42141;53.240;6.580;2023-05-07T14:14:39;21.50;99.90
56234;DHT22;42141;53.240;6.580;2023-05-07T14:17:05;21.50;99.90
56234;DHT22;42141;53.240;6.580;2023-05-07T14:19:31;21.30;99.90
56234;DHT22;42141;53.240;6.580;2023-05-07T14:21:56;21.10;99.90
56234;DHT22;42141;53.240;6.580;2023-05-07T14:24:23;20.80;99.90
56234;DHT22;42141;53.240;6.580;2023-05-07T14:26:49;20.70;99.90
56234;DHT22;42141;53.240;6.580;2023-05-07T14:29:15;20.60;99.90
56234;DHT22;42141;53.240;6.580;2023-05-07T14:31:44;20.50;99.90
56234;DHT22;42141;53.240;6.580;2023-05-07T14:34:10;20.40;99.90
56234;DHT22;42141;53.240;6.580;2023-05-07T14:36:36;20.40;99.90
56234;DHT22;42141;53.240;6.580;2023-05-07T14:39:03;20.30;99.90
56234;DHT22;42141;53.240;6.580;2023-05-07T14:41:29;20.30;99.90
56234;DHT22;42141;53.240;6.580;2023-05-07T14:43:55;20.20;99.90
56234;DHT22;42141;53.240;6.580;2023-05-07T14:46:21;20.20;99.90
56234;DHT22;42141;53.240;6.580;2023-05-07T14:48:46;20.30;99.90
56234;DHT22;42141;53.240;6.580;2023-05-07T14:51:13;20.40;99.90
56234;DHT22;42141;53.240;6.580;2023-05-07T14:53:40;20.40;99.90
56234;DHT22;42141;53.240;6.580;2023-05-07T14:56:06;20.40;99.90
56234;DHT22;42141;53.240;6.580;2023-05-07T14:58:32;20.40;99.90
56234;DHT22;42141;53.240;6.580;2023-05-07T15:00:59;20.30;99.90
56234;DHT22;42141;53.240;6.580;2023-05-07T15:03:25;20.30;99.90
56234;DHT22;42141;53.240;6.580;2023-05-07T15:05:51;20.30;99.90
56234;DHT22;42141;53.240;6.580;2023-05-07T15:08:17;20.30;99.90
56234;DHT22;42141;53.240;6.580;2023-05-07T15:10:43;20.30;99.90
56234;DHT22;42141;53.240;6.580;2023-05-07T15:13:10;20.20;99.90
56234;DHT22;42141;53.240;6.580;2023-05-07T15:15:36;20.20;99.90
56234;DHT22;42141;53.240;6.580;2023-05-07T15:18:03;20.10;99.90
56234;DHT22;42141;53.240;6.580;2023-05-07T15:20:28;20.10;99.90
56234;DHT22;42141;53.240;6.580;2023-05-07T15:22:54;20.10;99.90
56234;DHT22;42141;53.240;6.580;2023-05-07T15:25:20;20.20;99.90
56234;DHT22;42141;53.240;6.580;2023-05-07T15:27:46;20.10;99.90
56234;DHT22;42141;53.240;6.580;2023-05-07T15:30:12;20.10;99.90
56234;DHT22;42141;53.240;6.580;2023-05-07T15:32:40;20.10;99.90